sensor_id;sensor_type;location;lat;lon;timestamp;P1;durP1;ratioP1;P2;durP2;ratioP2
22040;SDS011;11184;52.444;13.578;2022-12-07T00:01:11;15.35;;;12.60;;
22040;SDS011;11184;52.444;13.578;2022-12-07T00:03:57;12.55;;;10.82;;
22040;SDS011;11184;52.444;13.578;2022-12-07T00:06:50;16.50;;;11.70;;
22040;SDS011;11184;52.444;13.578;2022-12-07T00:09:35;19.15;;;12.02;;
22040;SDS011;11184;52.444;13.578;2022-12-07T00:12:20;16.77;;;10.98;;
22040;SDS011;11184;52.444;13.578;2022-12-07T00:15:04;15.05;;;12.52;;
22040;SDS011;11184;52.444;13.578;2022-12-07T00:17:49;20.67;;;12.65;;
22040;SDS011;11184;52.444;13.578;2022-12-07T00:20:34;16.58;;;12.35;;
22040;SDS011;11184;52.444;13.578;2022-12-07T00:23:19;19.17;;;13.68;;
22040;SDS011;11184;52.444;13.578;2022-12-07T00:26:04;15.25;;;11.15;;
22040;SDS011;11184;52.444;13.578;2022-12-07T00:28:53;18.45;;;11.85;;
22040;SDS011;11184;52.444;13.578;2022-12-07T00:31:38;16.65;;;13.65;;
22040;SDS011;11184;52.444;13.578;2022-12-07T00:34:22;14.45;;;11.25;;
22040;SDS011;11184;52.444;13.578;2022-12-07T00:37:07;11.75;;;10.52;;
22040;SDS011;11184;52.444;13.578;2022-12-07T00:39:51;14.43;;;10.93;;
22040;SDS011;11184;52.444;13.578;2022-12-07T00:42:36;11.52;;;10.40;;
22040;SDS011;11184;52.444;13.578;2022-12-07T00:45:21;12.45;;;10.43;;
22040;SDS011;11184;52.444;13.578;2022-12-07T00:48:05;11.10;;;9.95;;
22040;SDS011;11184;52.444;13.578;2022-12-07T00:50:50;12.20;;;10.95;;
22040;SDS011;11184;52.444;13.578;2022-12-07T00:53:35;12.65;;;11.35;;
22040;SDS011;11184;52.444;13.578;2022-12-07T00:56:24;12.57;;;10.98;;
22040;SDS011;11184;52.444;13.578;2022-12-07T00:59:10;12.30;;;10.32;;
22040;SDS011;11184;52.444;13.578;2022-12-07T01:01:55;9.95;;;8.95;;
22040;SDS011;11184;52.444;13.578;2022-12-07T01:04:40;9.88;;;8.88;;
22040;SDS011;11184;52.444;13.578;2022-12-07T01:07:24;10.05;;;9.05;;
22040;SDS011;11184;52.444;13.578;2022-12-07T01:10:09;12.82;;;10.27;;
22040;SDS011;11184;52.444;13.578;2022-12-07T01:12:53;10.40;;;9.38;;
22040;SDS011;11184;52.444;13.578;2022-12-07T01:15:39;11.00;;;9.98;;
22040;SDS011;11184;52.444;13.578;2022-12-07T01:18:24;9.45;;;8.65;;
22040;SDS011;11184;52.444;13.578;2022-12-07T01:21:10;11.93;;;10.73;;
22040;SDS011;11184;52.444;13.578;2022-12-07T01:23:56;14.43;;;8.05;;
22040;SDS011;11184;52.444;13.578;2022-12-07T01:26:41;10.23;;;9.07;;
22040;SDS011;11184;52.444;13.578;2022-12-07T01:29:26;10.13;;;9.25;;
22040;SDS011;11184;52.444;13.578;2022-12-07T01:32:11;10.07;;;7.97;;
22040;SDS011;11184;52.444;13.578;2022-12-07T01:34:56;10.65;;;9.60;;
22040;SDS011;11184;52.444;13.578;2022-12-07T01:37:41;10.40;;;9.40;;
22040;SDS011;11184;52.444;13.578;2022-12-07T01:40:26;10.10;;;9.10;;
22040;SDS011;11184;52.444;13.578;2022-12-07T01:43:23;10.27;;;9.27;;
22040;SDS011;11184;52.444;13.578;2022-12-07T01:46:08;10.50;;;8.40;;
22040;SDS011;11184;52.444;13.578;2022-12-07T01:48:53;9.38;;;8.57;;
22040;SDS011;11184;52.444;13.578;2022-12-07T01:51:38;10.00;;;8.93;;
22040;SDS011;11184;52.444;13.578;2022-12-07T01:54:24;9.25;;;8.43;;
22040;SDS011;11184;52.444;13.578;2022-12-07T01:57:09;8.57;;;7.78;;
22040;SDS011;11184;52.444;13.578;2022-12-07T01:59:54;9.60;;;8.52;;
22040;SDS011;11184;52.444;13.578;2022-12-07T02:02:47;8.32;;;7.53;;
22040;SDS011;11184;52.444;13.578;2022-12-07T02:05:33;7.65;;;6.95;;
22040;SDS011;11184;52.444;13.578;2022-12-07T02:08:18;12.43;;;7.90;;
22040;SDS011;11184;52.444;13.578;2022-12-07T02:11:04;9.63;;;8.27;;
22040;SDS011;11184;52.444;13.578;2022-12-07T02:13:50;6.88;;;6.22;;
22040;SDS011;11184;52.444;13.578;2022-12-07T02:19:29;6.30;;;5.72;;
22040;SDS011;11184;52.444;13.578;2022-12-07T02:22:22;7.90;;;7.20;;
22040;SDS011;11184;52.444;13.578;2022-12-07T02:28:19;8.20;;;6.57;;
22040;SDS011;11184;52.444;13.578;2022-12-07T02:31:10;8.18;;;6.80;;
22040;SDS011;11184;52.444;13.578;2022-12-07T02:34:05;9.93;;;8.43;;
22040;SDS011;11184;52.444;13.578;2022-12-07T02:36:52;8.43;;;7.20;;
22040;SDS011;11184;52.444;13.578;2022-12-07T02:39:48;8.18;;;7.35;;
22040;SDS011;11184;52.444;13.578;2022-12-07T02:42:38;7.88;;;7.07;;
22040;SDS011;11184;52.444;13.578;2022-12-07T02:45:25;9.43;;;7.15;;
22040;SDS011;11184;52.444;13.578;2022-12-07T02:48:10;8.68;;;7.25;;
22040;SDS011;11184;52.444;13.578;2022-12-07T02:50:56;7.50;;;6.80;;
22040;SDS011;11184;52.444;13.578;2022-12-07T02:53:41;7.75;;;6.95;;
22040;SDS011;11184;52.444;13.578;2022-12-07T02:56:41;7.50;;;6.80;;
22040;SDS011;11184;52.444;13.578;2022-12-07T03:02:35;7.95;;;6.75;;
22040;SDS011;11184;52.444;13.578;2022-12-07T03:06:10;8.40;;;7.70;;
22040;SDS011;11184;52.444;13.578;2022-12-07T03:11:34;8.82;;;7.95;;
22040;SDS011;11184;52.444;13.578;2022-12-07T03:14:24;8.45;;;7.53;;
22040;SDS011;11184;52.444;13.578;2022-12-07T03:17:12;7.97;;;7.25;;
22040;SDS011;11184;52.444;13.578;2022-12-07T03:19:58;7.93;;;7.15;;
22040;SDS011;11184;52.444;13.578;2022-12-07T03:22:42;9.57;;;8.77;;
22040;SDS011;11184;52.444;13.578;2022-12-07T03:25:28;8.30;;;7.50;;
22040;SDS011;11184;52.444;13.578;2022-12-07T03:28:14;8.13;;;7.13;;
22040;SDS011;11184;52.444;13.578;2022-12-07T03:31:02;8.52;;;7.70;;
22040;SDS011;11184;52.444;13.578;2022-12-07T03:34:08;9.02;;;8.23;;
22040;SDS011;11184;52.444;13.578;2022-12-07T03:36:55;9.75;;;8.75;;
22040;SDS011;11184;52.444;13.578;2022-12-07T03:42:45;9.30;;;7.47;;
22040;SDS011;11184;52.444;13.578;2022-12-07T03:45:40;8.65;;;7.85;;
22040;SDS011;11184;52.444;13.578;2022-12-07T03:48:43;8.27;;;7.18;;
22040;SDS011;11184;52.444;13.578;2022-12-07T03:51:41;7.93;;;7.13;;
22040;SDS011;11184;52.444;13.578;2022-12-07T03:54:32;9.38;;;8.50;;
22040;SDS011;11184;52.444;13.578;2022-12-07T03:57:19;9.35;;;8.32;;
22040;SDS011;11184;52.444;13.578;2022-12-07T04:00:05;11.02;;;7.95;;
22040;SDS011;11184;52.444;13.578;2022-12-07T04:02:51;7.30;;;6.63;;
22040;SDS011;11184;52.444;13.578;2022-12-07T04:05:37;6.97;;;6.30;;
22040;SDS011;11184;52.444;13.578;2022-12-07T04:08:21;8.82;;;7.10;;
22040;SDS011;11184;52.444;13.578;2022-12-07T04:11:06;10.07;;;8.40;;
22040;SDS011;11184;52.444;13.578;2022-12-07T04:13:50;10.95;;;8.38;;
22040;SDS011;11184;52.444;13.578;2022-12-07T04:16:55;8.35;;;7.35;;
22040;SDS011;11184;52.444;13.578;2022-12-07T04:19:40;10.43;;;9.30;;
22040;SDS011;11184;52.444;13.578;2022-12-07T04:22:24;10.20;;;8.48;;
22040;SDS011;11184;52.444;13.578;2022-12-07T04:25:09;10.70;;;9.43;;
22040;SDS011;11184;52.444;13.578;2022-12-07T04:27:53;11.30;;;10.18;;
22040;SDS011;11184;52.444;13.578;2022-12-07T04:30:38;15.13;;;11.27;;
22040;SDS011;11184;52.444;13.578;2022-12-07T04:33:23;12.55;;;10.85;;
22040;SDS011;11184;52.444;13.578;2022-12-07T04:36:07;11.20;;;10.13;;
22040;SDS011;11184;52.444;13.578;2022-12-07T04:38:53;13.43;;;12.13;;
22040;SDS011;11184;52.444;13.578;2022-12-07T04:41:38;13.93;;;11.50;;
22040;SDS011;11184;52.444;13.578;2022-12-07T04:44:23;15.20;;;12.27;;
22040;SDS011;11184;52.444;13.578;2022-12-07T04:47:08;14.07;;;11.27;;
22040;SDS011;11184;52.444;13.578;2022-12-07T04:49:53;16.35;;;12.68;;
22040;SDS011;11184;52.444;13.578;2022-12-07T04:52:38;20.88;;;15.82;;
22040;SDS011;11184;52.444;13.578;2022-12-07T04:55:22;17.02;;;12.82;;
22040;SDS011;11184;52.444;13.578;2022-12-07T04:58:07;20.25;;;15.52;;
22040;SDS011;11184;52.444;13.578;2022-12-07T05:00:53;20.42;;;15.10;;
22040;SDS011;11184;52.444;13.578;2022-12-07T05:03:39;15.93;;;13.15;;
22040;SDS011;11184;52.444;13.578;2022-12-07T05:06:24;19.95;;;15.98;;
22040;SDS011;11184;52.444;13.578;2022-12-07T05:09:09;23.90;;;15.52;;
22040;SDS011;11184;52.444;13.578;2022-12-07T05:11:53;20.60;;;16.10;;
22040;SDS011;11184;52.444;13.578;2022-12-07T05:14:38;20.13;;;16.02;;
22040;SDS011;11184;52.444;13.578;2022-12-07T05:17:22;21.98;;;16.63;;
22040;SDS011;11184;52.444;13.578;2022-12-07T05:20:07;24.52;;;16.73;;
22040;SDS011;11184;52.444;13.578;2022-12-07T05:22:52;25.83;;;18.05;;
22040;SDS011;11184;52.444;13.578;2022-12-07T05:25:37;27.15;;;16.85;;
22040;SDS011;11184;52.444;13.578;2022-12-07T05:28:22;29.60;;;19.50;;
22040;SDS011;11184;52.444;13.578;2022-12-07T05:31:06;26.23;;;18.27;;
22040;SDS011;11184;52.444;13.578;2022-12-07T05:33:51;23.38;;;17.95;;
22040;SDS011;11184;52.444;13.578;2022-12-07T05:36:36;24.42;;;17.30;;
22040;SDS011;11184;52.444;13.578;2022-12-07T05:39:21;26.35;;;20.27;;
22040;SDS011;11184;52.444;13.578;2022-12-07T05:42:05;24.75;;;17.73;;
22040;SDS011;11184;52.444;13.578;2022-12-07T05:44:56;25.42;;;18.63;;
22040;SDS011;11184;52.444;13.578;2022-12-07T05:47:40;25.52;;;18.75;;
22040;SDS011;11184;52.444;13.578;2022-12-07T05:50:25;26.67;;;17.88;;
22040;SDS011;11184;52.444;13.578;2022-12-07T05:53:11;26.92;;;17.73;;
22040;SDS011;11184;52.444;13.578;2022-12-07T05:55:56;31.13;;;20.08;;
22040;SDS011;11184;52.444;13.578;2022-12-07T05:58:40;31.55;;;19.92;;
22040;SDS011;11184;52.444;13.578;2022-12-07T06:01:44;40.92;;;20.90;;
22040;SDS011;11184;52.444;13.578;2022-12-07T06:04:30;26.17;;;18.50;;
22040;SDS011;11184;52.444;13.578;2022-12-07T06:07:15;33.70;;;19.65;;
22040;SDS011;11184;52.444;13.578;2022-12-07T06:10:00;35.45;;;20.85;;
22040;SDS011;11184;52.444;13.578;2022-12-07T06:12:45;30.10;;;21.00;;
22040;SDS011;11184;52.444;13.578;2022-12-07T06:15:30;32.50;;;20.10;;
22040;SDS011;11184;52.444;13.578;2022-12-07T06:18:14;31.23;;;21.58;;
22040;SDS011;11184;52.444;13.578;2022-12-07T06:20:59;32.58;;;21.00;;
22040;SDS011;11184;52.444;13.578;2022-12-07T06:23:43;31.92;;;21.75;;
22040;SDS011;11184;52.444;13.578;2022-12-07T06:26:28;36.78;;;23.52;;
22040;SDS011;11184;52.444;13.578;2022-12-07T06:29:13;33.83;;;22.13;;
22040;SDS011;11184;52.444;13.578;2022-12-07T06:31:58;37.38;;;21.90;;
22040;SDS011;11184;52.444;13.578;2022-12-07T06:34:43;36.60;;;24.40;;
22040;SDS011;11184;52.444;13.578;2022-12-07T06:37:27;33.90;;;19.77;;
22040;SDS011;11184;52.444;13.578;2022-12-07T06:40:12;37.50;;;23.13;;
22040;SDS011;11184;52.444;13.578;2022-12-07T06:42:56;41.22;;;23.98;;
22040;SDS011;11184;52.444;13.578;2022-12-07T06:45:41;39.00;;;23.30;;
22040;SDS011;11184;52.444;13.578;2022-12-07T06:48:26;36.28;;;22.63;;
22040;SDS011;11184;52.444;13.578;2022-12-07T06:51:10;38.58;;;25.15;;
22040;SDS011;11184;52.444;13.578;2022-12-07T06:53:55;35.38;;;24.20;;
22040;SDS011;11184;52.444;13.578;2022-12-07T06:56:40;34.80;;;22.17;;
22040;SDS011;11184;52.444;13.578;2022-12-07T06:59:24;33.97;;;22.20;;
22040;SDS011;11184;52.444;13.578;2022-12-07T07:02:09;35.30;;;22.65;;
22040;SDS011;11184;52.444;13.578;2022-12-07T07:04:54;40.95;;;23.52;;
22040;SDS011;11184;52.444;13.578;2022-12-07T07:07:38;36.50;;;22.75;;
22040;SDS011;11184;52.444;13.578;2022-12-07T07:10:23;38.30;;;23.27;;
22040;SDS011;11184;52.444;13.578;2022-12-07T07:13:07;43.33;;;23.67;;
22040;SDS011;11184;52.444;13.578;2022-12-07T07:15:52;37.92;;;23.08;;
22040;SDS011;11184;52.444;13.578;2022-12-07T07:18:37;33.97;;;23.80;;
22040;SDS011;11184;52.444;13.578;2022-12-07T07:21:21;38.35;;;23.00;;
22040;SDS011;11184;52.444;13.578;2022-12-07T07:24:06;41.60;;;25.52;;
22040;SDS011;11184;52.444;13.578;2022-12-07T07:26:50;34.50;;;21.45;;
22040;SDS011;11184;52.444;13.578;2022-12-07T07:29:35;33.33;;;21.75;;
22040;SDS011;11184;52.444;13.578;2022-12-07T07:32:19;37.28;;;23.75;;
22040;SDS011;11184;52.444;13.578;2022-12-07T07:35:05;31.50;;;21.05;;
22040;SDS011;11184;52.444;13.578;2022-12-07T07:37:50;31.85;;;21.95;;
22040;SDS011;11184;52.444;13.578;2022-12-07T07:40:35;32.38;;;24.38;;
22040;SDS011;11184;52.444;13.578;2022-12-07T07:43:20;35.40;;;23.40;;
22040;SDS011;11184;52.444;13.578;2022-12-07T07:46:04;31.38;;;20.65;;
22040;SDS011;11184;52.444;13.578;2022-12-07T07:48:49;29.02;;;21.35;;
22040;SDS011;11184;52.444;13.578;2022-12-07T07:51:34;23.88;;;18.55;;
22040;SDS011;11184;52.444;13.578;2022-12-07T07:54:18;27.25;;;18.42;;
22040;SDS011;11184;52.444;13.578;2022-12-07T07:57:03;26.23;;;18.90;;
22040;SDS011;11184;52.444;13.578;2022-12-07T07:59:47;22.00;;;16.70;;
22040;SDS011;11184;52.444;13.578;2022-12-07T08:02:33;22.63;;;15.40;;
22040;SDS011;11184;52.444;13.578;2022-12-07T08:05:18;28.42;;;16.73;;
22040;SDS011;11184;52.444;13.578;2022-12-07T08:08:02;21.63;;;15.32;;
22040;SDS011;11184;52.444;13.578;2022-12-07T08:10:47;21.83;;;15.13;;
22040;SDS011;11184;52.444;13.578;2022-12-07T08:13:32;23.33;;;16.30;;
22040;SDS011;11184;52.444;13.578;2022-12-07T08:16:16;22.25;;;15.23;;
22040;SDS011;11184;52.444;13.578;2022-12-07T08:19:01;15.88;;;13.32;;
22040;SDS011;11184;52.444;13.578;2022-12-07T08:21:45;18.20;;;12.57;;
22040;SDS011;11184;52.444;13.578;2022-12-07T08:24:34;14.80;;;11.77;;
22040;SDS011;11184;52.444;13.578;2022-12-07T08:27:20;13.25;;;10.55;;
22040;SDS011;11184;52.444;13.578;2022-12-07T08:30:07;11.85;;;10.68;;
22040;SDS011;11184;52.444;13.578;2022-12-07T08:32:52;14.63;;;11.77;;
22040;SDS011;11184;52.444;13.578;2022-12-07T08:35:37;11.32;;;10.23;;
22040;SDS011;11184;52.444;13.578;2022-12-07T08:38:22;16.80;;;11.63;;
22040;SDS011;11184;52.444;13.578;2022-12-07T08:41:07;10.80;;;7.60;;
22040;SDS011;11184;52.444;13.578;2022-12-07T08:43:52;9.68;;;8.13;;
22040;SDS011;11184;52.444;13.578;2022-12-07T08:46:38;14.50;;;8.07;;
22040;SDS011;11184;52.444;13.578;2022-12-07T08:49:28;11.23;;;7.53;;
22040;SDS011;11184;52.444;13.578;2022-12-07T08:52:15;9.02;;;6.90;;
22040;SDS011;11184;52.444;13.578;2022-12-07T08:55:00;10.05;;;7.30;;
22040;SDS011;11184;52.444;13.578;2022-12-07T08:57:44;8.00;;;6.32;;
22040;SDS011;11184;52.444;13.578;2022-12-07T09:00:29;7.72;;;6.13;;
22040;SDS011;11184;52.444;13.578;2022-12-07T09:03:14;4.93;;;4.40;;
22040;SDS011;11184;52.444;13.578;2022-12-07T09:05:58;3.60;;;3.28;;
22040;SDS011;11184;52.444;13.578;2022-12-07T09:08:45;3.22;;;2.95;;
22040;SDS011;11184;52.444;13.578;2022-12-07T09:11:30;2.65;;;2.45;;
22040;SDS011;11184;52.444;13.578;2022-12-07T09:14:15;2.30;;;2.10;;
22040;SDS011;11184;52.444;13.578;2022-12-07T09:17:10;2.15;;;2.03;;
22040;SDS011;11184;52.444;13.578;2022-12-07T09:19:55;1.98;;;1.88;;
22040;SDS011;11184;52.444;13.578;2022-12-07T09:22:40;5.80;;;1.80;;
22040;SDS011;11184;52.444;13.578;2022-12-07T09:25:25;2.50;;;2.20;;
22040;SDS011;11184;52.444;13.578;2022-12-07T09:28:10;2.53;;;2.33;;
22040;SDS011;11184;52.444;13.578;2022-12-07T09:30:54;2.83;;;1.48;;
22040;SDS011;11184;52.444;13.578;2022-12-07T09:33:39;1.95;;;1.52;;
22040;SDS011;11184;52.444;13.578;2022-12-07T09:36:25;1.58;;;1.45;;
22040;SDS011;11184;52.444;13.578;2022-12-07T09:39:10;1.95;;;1.40;;
22040;SDS011;11184;52.444;13.578;2022-12-07T09:41:56;2.05;;;1.95;;
22040;SDS011;11184;52.444;13.578;2022-12-07T09:44:42;3.85;;;2.10;;
22040;SDS011;11184;52.444;13.578;2022-12-07T09:47:27;2.30;;;2.10;;
22040;SDS011;11184;52.444;13.578;2022-12-07T09:50:14;2.42;;;2.20;;
22040;SDS011;11184;52.444;13.578;2022-12-07T09:53:06;2.30;;;2.10;;
22040;SDS011;11184;52.444;13.578;2022-12-07T09:55:52;3.00;;;2.75;;
22040;SDS011;11184;52.444;13.578;2022-12-07T09:58:37;3.05;;;2.85;;
22040;SDS011;11184;52.444;13.578;2022-12-07T10:01:22;3.65;;;3.38;;
22040;SDS011;11184;52.444;13.578;2022-12-07T10:04:11;3.45;;;3.15;;
22040;SDS011;11184;52.444;13.578;2022-12-07T10:06:58;2.50;;;2.15;;
22040;SDS011;11184;52.444;13.578;2022-12-07T10:09:43;2.20;;;2.00;;
22040;SDS011;11184;52.444;13.578;2022-12-07T10:12:27;3.20;;;2.25;;
22040;SDS011;11184;52.444;13.578;2022-12-07T10:15:12;2.90;;;1.98;;
22040;SDS011;11184;52.444;13.578;2022-12-07T10:17:57;3.42;;;2.05;;
22040;SDS011;11184;52.444;13.578;2022-12-07T10:20:45;2.35;;;2.15;;
22040;SDS011;11184;52.444;13.578;2022-12-07T10:23:30;4.15;;;3.72;;
22040;SDS011;11184;52.444;13.578;2022-12-07T10:26:50;2.30;;;2.10;;
22040;SDS011;11184;52.444;13.578;2022-12-07T10:38:07;2.97;;;2.38;;
22040;SDS011;11184;52.444;13.578;2022-12-07T10:41:04;3.75;;;2.85;;
22040;SDS011;11184;52.444;13.578;2022-12-07T10:43:51;3.38;;;2.55;;
22040;SDS011;11184;52.444;13.578;2022-12-07T10:49:28;2.80;;;2.60;;
22040;SDS011;11184;52.444;13.578;2022-12-07T10:52:24;5.50;;;3.78;;
22040;SDS011;11184;52.444;13.578;2022-12-07T10:55:31;4.20;;;3.80;;
22040;SDS011;11184;52.444;13.578;2022-12-07T11:01:14;2.15;;;1.95;;
22040;SDS011;11184;52.444;13.578;2022-12-07T11:04:07;2.83;;;2.58;;
22040;SDS011;11184;52.444;13.578;2022-12-07T11:07:00;2.65;;;2.45;;
22040;SDS011;11184;52.444;13.578;2022-12-07T11:16:02;6.55;;;2.58;;
22040;SDS011;11184;52.444;13.578;2022-12-07T11:21:42;3.75;;;2.97;;
22040;SDS011;11184;52.444;13.578;2022-12-07T11:24:40;5.30;;;3.20;;
22040;SDS011;11184;52.444;13.578;2022-12-07T11:27:47;6.55;;;3.42;;
22040;SDS011;11184;52.444;13.578;2022-12-07T11:30:48;5.97;;;4.03;;
22040;SDS011;11184;52.444;13.578;2022-12-07T11:33:44;6.70;;;2.67;;
22040;SDS011;11184;52.444;13.578;2022-12-07T11:36:47;4.30;;;3.47;;
22040;SDS011;11184;52.444;13.578;2022-12-07T11:39:33;4.90;;;3.33;;
22040;SDS011;11184;52.444;13.578;2022-12-07T11:42:24;3.28;;;2.65;;
22040;SDS011;11184;52.444;13.578;2022-12-07T11:48:01;3.38;;;3.15;;
22040;SDS011;11184;52.444;13.578;2022-12-07T11:50:47;3.58;;;3.28;;
22040;SDS011;11184;52.444;13.578;2022-12-07T11:53:41;3.45;;;3.13;;
22040;SDS011;11184;52.444;13.578;2022-12-07T11:56:28;5.05;;;4.15;;
22040;SDS011;11184;52.444;13.578;2022-12-07T11:59:20;4.38;;;3.58;;
22040;SDS011;11184;52.444;13.578;2022-12-07T12:02:18;8.45;;;4.03;;
22040;SDS011;11184;52.444;13.578;2022-12-07T12:08:30;4.88;;;3.17;;
22040;SDS011;11184;52.444;13.578;2022-12-07T12:17:20;6.18;;;3.85;;
22040;SDS011;11184;52.444;13.578;2022-12-07T12:23:05;5.32;;;3.50;;
22040;SDS011;11184;52.444;13.578;2022-12-07T12:25:52;13.85;;;3.85;;
22040;SDS011;11184;52.444;13.578;2022-12-07T12:28:39;6.35;;;3.40;;
22040;SDS011;11184;52.444;13.578;2022-12-07T12:31:31;5.30;;;3.33;;
22040;SDS011;11184;52.444;13.578;2022-12-07T12:34:32;7.63;;;3.95;;
22040;SDS011;11184;52.444;13.578;2022-12-07T12:37:38;5.80;;;3.00;;
22040;SDS011;11184;52.444;13.578;2022-12-07T12:43:39;5.13;;;3.22;;
22040;SDS011;11184;52.444;13.578;2022-12-07T12:55:11;3.90;;;2.42;;
22040;SDS011;11184;52.444;13.578;2022-12-07T12:58:21;6.45;;;1.90;;
22040;SDS011;11184;52.444;13.578;2022-12-07T13:04:24;5.95;;;2.35;;
22040;SDS011;11184;52.444;13.578;2022-12-07T13:07:10;7.65;;;3.00;;
22040;SDS011;11184;52.444;13.578;2022-12-07T13:09:56;13.63;;;3.00;;
22040;SDS011;11184;52.444;13.578;2022-12-07T13:12:40;7.28;;;3.83;;
22040;SDS011;11184;52.444;13.578;2022-12-07T13:15:38;3.63;;;2.53;;
22040;SDS011;11184;52.444;13.578;2022-12-07T13:18:35;4.53;;;2.78;;
22040;SDS011;11184;52.444;13.578;2022-12-07T13:24:11;8.73;;;3.20;;
22040;SDS011;11184;52.444;13.578;2022-12-07T13:26:57;7.45;;;2.47;;
22040;SDS011;11184;52.444;13.578;2022-12-07T13:29:42;7.07;;;3.53;;
22040;SDS011;11184;52.444;13.578;2022-12-07T13:32:28;9.88;;;3.63;;
22040;SDS011;11184;52.444;13.578;2022-12-07T13:38:25;6.75;;;2.67;;
22040;SDS011;11184;52.444;13.578;2022-12-07T13:44:15;7.68;;;3.08;;
22040;SDS011;11184;52.444;13.578;2022-12-07T13:49:37;9.70;;;3.92;;
22040;SDS011;11184;52.444;13.578;2022-12-07T13:52:27;10.45;;;3.17;;
22040;SDS011;11184;52.444;13.578;2022-12-07T13:55:13;7.00;;;3.30;;
22040;SDS011;11184;52.444;13.578;2022-12-07T13:57:59;4.47;;;2.40;;
22040;SDS011;11184;52.444;13.578;2022-12-07T14:00:44;8.23;;;3.78;;
22040;SDS011;11184;52.444;13.578;2022-12-07T14:03:30;5.68;;;2.58;;
22040;SDS011;11184;52.444;13.578;2022-12-07T14:06:17;12.20;;;4.15;;
22040;SDS011;11184;52.444;13.578;2022-12-07T14:09:06;3.22;;;2.83;;
22040;SDS011;11184;52.444;13.578;2022-12-07T14:11:52;13.23;;;6.35;;
22040;SDS011;11184;52.444;13.578;2022-12-07T14:14:37;3.60;;;1.98;;
22040;SDS011;11184;52.444;13.578;2022-12-07T14:17:22;12.43;;;6.10;;
22040;SDS011;11184;52.444;13.578;2022-12-07T14:23:24;3.92;;;2.33;;
22040;SDS011;11184;52.444;13.578;2022-12-07T14:28:43;4.05;;;2.50;;
22040;SDS011;11184;52.444;13.578;2022-12-07T14:31:28;3.72;;;1.98;;
22040;SDS011;11184;52.444;13.578;2022-12-07T14:34:13;8.25;;;2.53;;
22040;SDS011;11184;52.444;13.578;2022-12-07T14:36:57;3.90;;;2.40;;
22040;SDS011;11184;52.444;13.578;2022-12-07T14:39:42;5.40;;;2.80;;
22040;SDS011;11184;52.444;13.578;2022-12-07T14:42:27;10.27;;;2.33;;
22040;SDS011;11184;52.444;13.578;2022-12-07T14:45:15;8.23;;;4.18;;
22040;SDS011;11184;52.444;13.578;2022-12-07T14:48:00;8.35;;;2.75;;
22040;SDS011;11184;52.444;13.578;2022-12-07T14:50:45;3.55;;;2.53;;
22040;SDS011;11184;52.444;13.578;2022-12-07T14:53:36;5.03;;;1.98;;
22040;SDS011;11184;52.444;13.578;2022-12-07T14:56:21;6.75;;;2.95;;
22040;SDS011;11184;52.444;13.578;2022-12-07T14:59:06;6.07;;;2.80;;
22040;SDS011;11184;52.444;13.578;2022-12-07T15:01:51;5.90;;;1.95;;
22040;SDS011;11184;52.444;13.578;2022-12-07T15:04:35;10.02;;;2.67;;
22040;SDS011;11184;52.444;13.578;2022-12-07T15:07:20;7.03;;;3.20;;
22040;SDS011;11184;52.444;13.578;2022-12-07T15:10:06;11.68;;;3.72;;
22040;SDS011;11184;52.444;13.578;2022-12-07T15:12:51;10.20;;;4.53;;
22040;SDS011;11184;52.444;13.578;2022-12-07T15:15:36;7.03;;;2.88;;
22040;SDS011;11184;52.444;13.578;2022-12-07T15:18:21;7.00;;;2.55;;
22040;SDS011;11184;52.444;13.578;2022-12-07T15:21:10;5.53;;;3.75;;
22040;SDS011;11184;52.444;13.578;2022-12-07T15:23:55;4.07;;;2.28;;
22040;SDS011;11184;52.444;13.578;2022-12-07T15:26:40;2.70;;;2.40;;
22040;SDS011;11184;52.444;13.578;2022-12-07T15:29:25;13.98;;;3.15;;
22040;SDS011;11184;52.444;13.578;2022-12-07T15:32:09;5.22;;;2.08;;
22040;SDS011;11184;52.444;13.578;2022-12-07T15:34:54;8.05;;;2.88;;
22040;SDS011;11184;52.444;13.578;2022-12-07T15:37:39;4.97;;;2.25;;
22040;SDS011;11184;52.444;13.578;2022-12-07T15:40:24;7.88;;;3.50;;
22040;SDS011;11184;52.444;13.578;2022-12-07T15:43:09;6.72;;;3.42;;
22040;SDS011;11184;52.444;13.578;2022-12-07T15:46:14;2.75;;;2.20;;
22040;SDS011;11184;52.444;13.578;2022-12-07T15:48:59;5.78;;;2.95;;
22040;SDS011;11184;52.444;13.578;2022-12-07T15:51:44;8.98;;;4.30;;
22040;SDS011;11184;52.444;13.578;2022-12-07T15:54:29;7.43;;;3.40;;
22040;SDS011;11184;52.444;13.578;2022-12-07T15:57:13;5.00;;;3.75;;
22040;SDS011;11184;52.444;13.578;2022-12-07T15:59:58;5.90;;;3.80;;
22040;SDS011;11184;52.444;13.578;2022-12-07T16:02:43;6.47;;;3.33;;
22040;SDS011;11184;52.444;13.578;2022-12-07T16:05:27;6.40;;;2.80;;
22040;SDS011;11184;52.444;13.578;2022-12-07T16:08:12;11.32;;;3.65;;
22040;SDS011;11184;52.444;13.578;2022-12-07T16:10:57;10.25;;;4.22;;
22040;SDS011;11184;52.444;13.578;2022-12-07T16:13:42;5.30;;;3.17;;
22040;SDS011;11184;52.444;13.578;2022-12-07T16:31:34;4.50;;;2.58;;
22040;SDS011;11184;52.444;13.578;2022-12-07T16:34:19;5.10;;;3.35;;
22040;SDS011;11184;52.444;13.578;2022-12-07T16:37:03;7.03;;;3.28;;
22040;SDS011;11184;52.444;13.578;2022-12-07T16:39:48;17.05;;;3.60;;
22040;SDS011;11184;52.444;13.578;2022-12-07T16:42:33;8.10;;;3.33;;
22040;SDS011;11184;52.444;13.578;2022-12-07T16:45:18;7.45;;;3.83;;
22040;SDS011;11184;52.444;13.578;2022-12-07T16:48:02;6.65;;;3.65;;
22040;SDS011;11184;52.444;13.578;2022-12-07T16:50:47;10.32;;;3.42;;
22040;SDS011;11184;52.444;13.578;2022-12-07T16:53:32;6.25;;;3.15;;
22040;SDS011;11184;52.444;13.578;2022-12-07T16:56:16;5.28;;;3.10;;
22040;SDS011;11184;52.444;13.578;2022-12-07T16:59:01;9.68;;;2.70;;
22040;SDS011;11184;52.444;13.578;2022-12-07T17:01:46;10.95;;;3.95;;
22040;SDS011;11184;52.444;13.578;2022-12-07T17:04:31;6.85;;;3.47;;
22040;SDS011;11184;52.444;13.578;2022-12-07T17:07:16;7.93;;;4.50;;
22040;SDS011;11184;52.444;13.578;2022-12-07T17:10:01;3.90;;;3.20;;
22040;SDS011;11184;52.444;13.578;2022-12-07T17:12:45;5.88;;;2.50;;
22040;SDS011;11184;52.444;13.578;2022-12-07T17:15:30;6.30;;;3.95;;
22040;SDS011;11184;52.444;13.578;2022-12-07T17:18:15;7.40;;;3.08;;
22040;SDS011;11184;52.444;13.578;2022-12-07T17:21:03;3.97;;;3.65;;
22040;SDS011;11184;52.444;13.578;2022-12-07T17:23:49;8.45;;;3.45;;
22040;SDS011;11184;52.444;13.578;2022-12-07T17:26:34;4.97;;;3.58;;
22040;SDS011;11184;52.444;13.578;2022-12-07T17:29:19;3.42;;;3.00;;
22040;SDS011;11184;52.444;13.578;2022-12-07T17:32:04;6.78;;;3.22;;
22040;SDS011;11184;52.444;13.578;2022-12-07T17:34:49;9.20;;;3.25;;
22040;SDS011;11184;52.444;13.578;2022-12-07T17:37:33;6.57;;;3.13;;
22040;SDS011;11184;52.444;13.578;2022-12-07T17:40:18;5.43;;;3.85;;
22040;SDS011;11184;52.444;13.578;2022-12-07T17:43:02;4.15;;;3.42;;
22040;SDS011;11184;52.444;13.578;2022-12-07T17:45:47;4.47;;;3.28;;
22040;SDS011;11184;52.444;13.578;2022-12-07T17:48:32;7.13;;;3.70;;
22040;SDS011;11184;52.444;13.578;2022-12-07T17:51:16;7.85;;;3.53;;
22040;SDS011;11184;52.444;13.578;2022-12-07T17:54:20;4.50;;;3.63;;
22040;SDS011;11184;52.444;13.578;2022-12-07T17:57:04;8.32;;;3.58;;
22040;SDS011;11184;52.444;13.578;2022-12-07T17:59:49;11.82;;;4.45;;